Baycrest, New York
Current Conditions -  °F | °C
As of 4:53 AM on Friday 19 Dec 2014 (Local Time) from KFRG Reporting Station
Broken Clouds Broken Clouds  
Wind Chill: 31°   Ceiling: 3900
Heat Index: 36°   Visibility: 10mi
Dew Point: 25°   Wind: 6mph
Humidity: 64%   Direction: 290°WNW
Pressure: 29.97"   Gusts: NA
Location:  40.8966°N, 73.4362°W
Report Text: KFRG 190953Z AUTO 29005KT 10SM BKN039 02/M04 A2997 RMK AO2 SLP149 T00221039
Loading
Personal Weather Stations






























Interactive Weather Map New forecast layout! Learn more

10-Day Weather Forecast

Advertisements
Track Severe Weather on mobile